createdAt,value
2022-12-03T00:01:51.703Z,3.85
2022-12-03T00:07:06.586Z,3.85
2022-12-03T00:12:22.705Z,3.92
2022-12-03T00:17:43.056Z,3.92
2022-12-03T00:22:53.104Z,3.86
2022-12-03T00:28:09.264Z,3.73
2022-12-03T00:33:24.133Z,3.73
2022-12-03T00:38:39.032Z,3.9
2022-12-03T00:43:55.227Z,3.9
2022-12-03T00:49:11.416Z,3.78
2022-12-03T00:54:31.531Z,3.78
2022-12-03T00:59:42.420Z,3.9
2022-12-03T01:04:58.019Z,3.9
2022-12-03T01:10:14.071Z,3.94
2022-12-03T01:15:30.256Z,3.94
2022-12-03T01:20:46.392Z,3.98
2022-12-03T01:26:01.906Z,3.98
2022-12-03T01:31:18.117Z,3.91
2022-12-03T01:36:34.272Z,3.91
2022-12-03T01:41:52.946Z,3.96
2022-12-03T01:47:09.175Z,3.96
2022-12-03T01:52:25.269Z,4.03
2022-12-03T01:57:40.800Z,4.03
2022-12-03T02:02:55.669Z,4.04
2022-12-03T02:08:11.880Z,3.87
2022-12-03T02:13:27.993Z,3.87
2022-12-03T02:18:42.915Z,4.03
2022-12-03T02:23:59.032Z,4.03
2022-12-03T02:24:49.031Z,4.03
2022-12-03T02:29:15.831Z,3.56
2022-12-03T02:30:05.823Z,3.56
2022-12-03T02:34:30.793Z,3.56
2022-12-03T02:35:20.793Z,3.56
2022-12-03T02:39:47.512Z,3.89
2022-12-03T02:40:37.512Z,3.89
2022-12-03T02:45:05.257Z,3.89
2022-12-03T02:45:52.395Z,3.89
2022-12-03T02:50:19.203Z,3.99
2022-12-03T02:51:09.220Z,3.99
2022-12-03T02:55:36.981Z,3.99
2022-12-03T02:56:24.739Z,3.99
2022-12-03T03:00:49.640Z,3.85
2022-12-03T03:01:39.676Z,3.85
2022-12-03T03:06:07.667Z,3.85
2022-12-03T03:06:57.667Z,3.85
2022-12-03T03:11:23.830Z,4.12
2022-12-03T03:12:13.827Z,4.12
2022-12-03T03:16:38.768Z,4.12
2022-12-03T03:17:28.711Z,4.12
2022-12-03T03:21:54.231Z,4.05
2022-12-03T03:22:44.229Z,4.05
2022-12-03T03:27:08.460Z,4.05
2022-12-03T03:27:58.465Z,4.05
2022-12-03T03:32:24.648Z,4.07
2022-12-03T03:33:14.643Z,4.07
2022-12-03T03:37:41.420Z,4.07
2022-12-03T03:38:31.428Z,4.07
2022-12-03T03:42:56.979Z,3.94
2022-12-03T03:43:46.979Z,3.94
2022-12-03T03:48:11.835Z,3.75
2022-12-03T03:49:01.832Z,3.75
2022-12-03T03:53:26.744Z,3.75
2022-12-03T03:54:16.747Z,3.75
2022-12-03T03:58:42.241Z,3.81
2022-12-03T03:59:32.243Z,3.81
2022-12-03T04:03:58.461Z,3.81
2022-12-03T04:04:48.479Z,3.81
2022-12-03T04:08:24.574Z,3.96
2022-12-03T04:09:14.576Z,3.96
2022-12-03T04:12:58.463Z,3.96
2022-12-03T04:13:39.431Z,3.96
2022-12-03T04:18:12.681Z,3.99
2022-12-03T04:18:54.469Z,3.99
2022-12-03T04:23:31.332Z,3.99
2022-12-03T04:24:09.191Z,3.99
2022-12-03T04:28:43.721Z,3.93
2022-12-03T04:29:25.346Z,3.93
2022-12-03T04:34:09.823Z,3.93
2022-12-03T04:34:59.825Z,3.93
2022-12-03T04:39:26.555Z,4.07
2022-12-03T04:40:16.556Z,4.07
2022-12-03T04:44:44.147Z,4.07
2022-12-03T04:45:34.220Z,4.07
2022-12-03T04:50:00.284Z,3.85
2022-12-03T04:50:50.280Z,3.85
2022-12-03T04:55:16.929Z,3.85
2022-12-03T04:58:04.367Z,3.85
2022-12-03T05:02:45.231Z,3.98
2022-12-03T05:04:04.716Z,3.98
2022-12-03T05:08:00.201Z,4.05
2022-12-03T05:08:29.643Z,4.05
2022-12-03T05:13:15.072Z,4.05
2022-12-03T05:27:00.952Z,3.94
2022-12-03T05:35:55.002Z,3.94
2022-12-03T05:42:51.322Z,3.88
2022-12-03T05:48:09.238Z,4.02
2022-12-03T05:53:26.199Z,4.02
2022-12-03T05:58:42.920Z,3.98
2022-12-03T06:03:59.033Z,3.98
2022-12-03T06:09:16.481Z,3.96
2022-12-03T06:19:50.846Z,3.99
2022-12-03T06:30:24.282Z,4.08
2022-12-03T06:35:40.765Z,4.08
2022-12-03T06:40:58.040Z,4.01
2022-12-03T06:46:15.662Z,4.01
2022-12-03T06:51:31.486Z,3.98
2022-12-03T06:55:59.082Z,3.98
2022-12-03T07:00:26.517Z,4
2022-12-03T07:05:42.679Z,4
2022-12-03T07:11:00.601Z,3.7
2022-12-03T07:16:19.572Z,3.7
2022-12-03T07:21:36.123Z,3.97
2022-12-03T07:26:02.457Z,3.97
2022-12-03T07:30:42.761Z,4.02
2022-12-03T07:35:51.892Z,4.02
2022-12-03T07:41:01.664Z,3.8
2022-12-03T07:46:11.750Z,3.8
2022-12-03T07:51:20.533Z,3.97
2022-12-03T07:56:29.018Z,3.97
2022-12-03T08:01:40.158Z,4.13
2022-12-03T08:06:49.176Z,4.13
2022-12-03T08:11:57.631Z,4.04
2022-12-03T08:17:08.041Z,4.04
2022-12-03T08:22:17.162Z,4.04
2022-12-03T08:27:28.199Z,4.08
2022-12-03T08:32:37.961Z,4.08
2022-12-03T08:37:47.084Z,4.05
2022-12-03T08:42:57.494Z,4.05
2022-12-03T08:48:06.001Z,4.06
2022-12-03T08:53:14.465Z,4.06
2022-12-03T08:58:22.931Z,4.02
2022-12-03T09:03:38.090Z,4.02
2022-12-03T09:08:55.648Z,4.04
2022-12-03T09:14:18.242Z,4.04
2022-12-03T09:20:19.869Z,4.14
2022-12-03T09:25:20.826Z,4.14
2022-12-03T09:30:37.595Z,3.87
2022-12-03T09:34:32.515Z,3.87
2022-12-03T09:39:42.315Z,4.04
2022-12-03T09:44:53.348Z,4.04
2022-12-03T09:50:00.540Z,4.13
2022-12-03T09:55:09.649Z,4.13
2022-12-03T10:00:17.502Z,4.12
2022-12-03T10:05:25.334Z,4.12
2022-12-03T10:10:38.836Z,4.15
2022-12-03T10:15:55.762Z,4.15
2022-12-03T10:21:13.348Z,4.18
2022-12-03T10:26:30.042Z,4.18
2022-12-03T10:31:47.701Z,4.13
2022-12-03T10:37:04.924Z,4.13
2022-12-03T10:42:22.844Z,4.16
2022-12-03T10:47:39.978Z,4.16
2022-12-03T10:52:57.881Z,3.89
2022-12-03T10:57:25.812Z,3.89
2022-12-03T11:02:07.908Z,4.2
2022-12-03T11:07:16.067Z,4.2
2022-12-03T11:12:25.161Z,4.15
2022-12-03T11:17:33.636Z,4.09
2022-12-03T11:22:42.117Z,4.09
2022-12-03T11:27:51.876Z,4.14
2022-12-03T11:33:02.307Z,4.14
2022-12-03T11:38:10.748Z,4.1
2022-12-03T11:43:19.240Z,4.1
2022-12-03T11:48:29.104Z,4.02
2022-12-03T11:53:37.471Z,4.02
2022-12-03T11:58:45.971Z,3.74
2022-12-03T12:03:54.868Z,3.74
2022-12-03T12:09:02.938Z,4
2022-12-03T12:14:11.419Z,4
2022-12-03T12:19:20.513Z,4.16
2022-12-03T12:24:30.301Z,4.16
2022-12-03T12:28:04.592Z,4.16
2022-12-03T12:33:21.502Z,4.13
2022-12-03T12:38:38.350Z,4.13
2022-12-03T12:43:55.083Z,4.12
2022-12-03T12:49:11.844Z,3.98
2022-12-03T12:53:08.051Z,3.98
2022-12-03T12:58:16.512Z,4.36
2022-12-03T13:03:26.278Z,4.36
2022-12-03T13:08:35.401Z,4.17
2022-12-03T13:13:44.789Z,4.17
2022-12-03T13:18:53.640Z,4.09
2022-12-03T13:24:03.420Z,4.09
2022-12-03T13:29:13.233Z,3.91
2022-12-03T13:34:23.561Z,3.91
2022-12-03T13:39:32.050Z,4.03
2022-12-03T13:44:41.161Z,4.03
2022-12-03T13:49:53.614Z,4.01
2022-12-03T13:55:01.980Z,4.01
2022-12-03T14:00:10.815Z,3.96
2022-12-03T14:05:19.551Z,3.96
2022-12-03T14:10:29.987Z,4.1
2022-12-03T14:15:38.438Z,4.1
2022-12-03T14:20:46.920Z,4.13
2022-12-03T14:26:02.529Z,4.13
2022-12-03T14:31:20.043Z,4.08
2022-12-03T14:36:36.915Z,4.08
2022-12-03T14:41:54.364Z,3.86
2022-12-03T14:47:11.995Z,3.86
2022-12-03T14:52:27.489Z,3.95
2022-12-03T15:03:03.534Z,3.86
2022-12-03T15:13:37.558Z,4.06
2022-12-03T15:24:11.846Z,3.98
2022-12-03T15:29:28.752Z,3.98
2022-12-03T15:34:45.033Z,4.02
2022-12-03T15:40:02.360Z,4.14
2022-12-03T15:45:18.997Z,4.14
2022-12-03T15:50:39.839Z,3.96
2022-12-03T15:55:02.848Z,3.96
2022-12-03T15:59:31.959Z,3.9
2022-12-03T16:04:48.905Z,3.9
2022-12-03T16:10:05.718Z,3.8
2022-12-03T16:15:26.851Z,3.8
2022-12-03T16:19:49.162Z,4
2022-12-03T16:24:30.310Z,4
2022-12-03T16:29:38.749Z,4
2022-12-03T16:34:48.523Z,4
2022-12-03T16:39:57.868Z,4
2022-12-03T16:45:06.793Z,4
2022-12-03T16:50:30.706Z,3.74
2022-12-03T16:55:24.371Z,3.74
2022-12-03T17:00:33.507Z,3.96
2022-12-03T17:05:43.308Z,3.96
2022-12-03T17:10:54.117Z,3.92
2022-12-03T17:16:05.142Z,3.92
2022-12-03T17:21:13.797Z,3.98
2022-12-03T17:26:22.915Z,3.98
2022-12-03T17:31:43.314Z,4
2022-12-03T17:36:44.376Z,4
2022-12-03T17:41:52.845Z,3.93
2022-12-03T17:47:02.917Z,3.93
2022-12-03T17:52:11.709Z,3.95
2022-12-03T17:57:52.196Z,3.95
2022-12-03T18:02:42.249Z,4.04
2022-12-03T18:07:57.188Z,4.04
2022-12-03T18:13:11.978Z,4.07
2022-12-03T18:18:26.868Z,4.07
2022-12-03T18:23:41.755Z,4.01
2022-12-03T18:34:13.539Z,3.96
2022-12-03T18:44:49.569Z,4.04
2022-12-03T18:55:19.352Z,4.04
2022-12-03T19:06:03.603Z,4.14
2022-12-03T19:21:35.669Z,4.12
2022-12-03T19:37:22.235Z,4.09
2022-12-03T19:42:37.769Z,4.11
2022-12-03T19:47:05.191Z,4.11
2022-12-03T19:51:36.369Z,4.18
2022-12-03T19:56:44.347Z,4.18
2022-12-03T20:02:00.573Z,4.03
2022-12-03T20:07:15.347Z,4.03
2022-12-03T20:12:32.151Z,4.27
2022-12-03T20:16:59.231Z,4.27
2022-12-03T20:21:39.404Z,4
2022-12-03T20:26:47.890Z,4
2022-12-03T20:31:57.290Z,4.2
2022-12-03T20:37:05.478Z,4.2
2022-12-03T20:42:13.964Z,4.09
2022-12-03T20:47:23.729Z,4.09
2022-12-03T20:52:32.192Z,4.29
2022-12-03T20:57:41.969Z,4.29
2022-12-03T21:02:52.697Z,4.26
2022-12-03T21:08:01.275Z,4.26
2022-12-03T21:13:10.596Z,3.88
2022-12-03T21:18:21.014Z,3.88
2022-12-03T21:23:30.751Z,4.23
2022-12-03T21:28:41.161Z,4.23
2022-12-03T21:33:51.574Z,4.13
2022-12-03T21:39:00.679Z,4.19
2022-12-03T21:44:10.431Z,4.19
2022-12-03T21:49:18.935Z,4.13
2022-12-03T21:54:28.057Z,4.13
2022-12-03T21:59:36.519Z,4.17
2022-12-03T22:04:44.992Z,4.17
2022-12-03T22:09:55.765Z,4.26
2022-12-03T22:15:13.442Z,4.26
2022-12-03T22:20:25.297Z,4.38
2022-12-03T22:25:41.463Z,4.38
2022-12-03T22:30:57.630Z,4.26
2022-12-03T22:36:16.360Z,4.26
2022-12-03T22:41:28.012Z,3.83
2022-12-03T22:46:44.219Z,3.83
2022-12-03T22:52:01.844Z,4.18
2022-12-03T22:57:13.913Z,4.18
2022-12-03T23:02:28.872Z,4.36
2022-12-03T23:07:44.348Z,4.36
2022-12-03T23:12:10.463Z,4.08
2022-12-03T23:16:52.061Z,4.08
2022-12-03T23:21:59.887Z,4.52
2022-12-03T23:27:08.988Z,4.52
2022-12-03T23:32:24.532Z,4.14
2022-12-03T23:37:41.280Z,4.14
2022-12-03T23:42:56.155Z,4.18
2022-12-03T23:48:12.394Z,4.18
2022-12-03T23:53:27.217Z,4.26
2022-12-03T23:58:43.348Z,4.26
